Time;durP1;ratioP1;P1;durP2;ratioP2;P2;SDS_P1;SDS_P2;PMS_P1;PMS_P2;Temp;Humidity;BMP_temperature;BMP_pressure;BME280_temperature;BME280_humidity;BME280_pressure;Samples;Min_cycle;Max_cycle;Signal;HPM_P1;HPM_P2
2021/08/24 00:01:03;;;;;;;2.90;1.77;;;;;;;13.20;86.71;101475.13;1619381;88;21168;-82
2021/08/24 00:03:29;;;;;;;4.33;2.17;;;;;;;13.20;86.67;101466.04;1619419;86;21053;-82
2021/08/24 00:05:55;;;;;;;5.40;1.90;;;;;;;13.22;86.67;101472.08;1620487;86;21053;-82
2021/08/24 00:08:22;;;;;;;4.07;2.20;;;;;;;13.23;86.67;101469.90;1623566;85;21080;-82
2021/08/24 00:10:56;;;;;;;5.20;2.27;;;;;;;13.25;86.68;101472.03;1626589;85;21416;-82
2021/08/24 00:13:26;;;;;;;5.12;2.27;;;;;;;13.27;86.62;101462.92;1618921;87;21096;-82
2021/08/24 00:15:54;;;;;;;3.05;1.65;;;;;;;13.27;86.62;101474.17;1602768;86;21096;-82
2021/08/24 00:18:21;;;;;;;2.98;2.08;;;;;;;13.27;86.62;101471.58;1589830;88;21136;-82
2021/08/24 00:20:51;;;;;;;4.28;2.58;;;;;;;13.27;86.64;101470.28;1619349;87;21106;-82
2021/08/24 00:23:23;;;;;;;3.72;2.08;;;;;;;13.28;86.65;101462.91;1615140;86;21129;-82
2021/08/24 00:25:52;;;;;;;4.72;2.00;;;;;;;13.29;86.60;101463.77;1604669;88;21128;-82
2021/08/24 00:28:20;;;;;;;3.98;2.20;;;;;;;13.30;86.64;101468.08;1593790;88;21069;-82
2021/08/24 00:30:47;;;;;;;2.67;1.90;;;;;;;13.31;86.64;101456.81;1606308;86;21132;-82
2021/08/24 00:33:16;;;;;;;10.00;2.33;;;;;;;13.34;86.63;101465.86;1618116;85;21072;-82
2021/08/24 00:35:44;;;;;;;5.50;1.90;;;;;;;13.35;86.66;101463.68;1600822;87;21060;-82
2021/08/24 00:38:19;;;;;;;2.00;1.70;;;;;;;13.37;86.66;101469.72;1572607;89;21082;-82
2021/08/24 00:41:02;;;;;;;3.52;1.52;;;;;;;13.39;86.63;101475.75;1589138;87;21114;-82
2021/08/24 00:43:31;;;;;;;6.72;1.85;;;;;;;13.42;86.65;101481.76;1573774;90;21106;-82
2021/08/24 00:46:09;;;;;;;5.47;2.08;;;;;;;13.44;86.65;101476.10;1573085;89;21078;-82
2021/08/24 00:48:36;;;;;;;2.58;1.90;;;;;;;13.45;86.61;101474.37;1585650;88;21073;-81
2021/08/24 00:51:02;;;;;;;;;;;;;;;13.48;86.63;101479.52;1592001;89;21082;-82
2021/08/24 00:53:33;;;;;;;4.58;1.52;;;;;;;13.48;86.70;101492.52;1569297;88;20302;-82
2021/08/24 00:56:01;;;;;;;4.37;2.10;;;;;;;13.47;86.62;101486.45;1572166;87;21069;-82
2021/08/24 00:58:36;;;;;;;4.22;1.70;;;;;;;13.47;86.62;101494.69;1565298;89;21126;-82
2021/08/24 01:01:04;;;;;;;5.25;2.22;;;;;;;13.49;86.63;101497.69;1581086;88;21153;-82
2021/08/24 01:03:41;;;;;;;5.50;1.98;;;;;;;13.49;86.61;101495.09;1579925;87;21146;-82
2021/08/24 01:06:36;;;;;;;4.87;2.15;;;;;;;13.49;86.65;101484.70;1562936;91;21120;-82
2021/08/24 01:09:32;;;;;;;3.80;1.50;;;;;;;13.51;86.63;101493.77;1572345;89;21137;-82
2021/08/24 01:12:25;;;;;;;3.10;1.80;;;;;;;13.52;86.64;101487.22;1555769;90;21146;-82
2021/08/24 01:15:33;;;;;;;5.40;1.82;;;;;;;13.54;86.62;101493.69;1543882;91;21146;-82
2021/08/24 01:18:29;;;;;;;6.60;2.10;;;;;;;13.54;86.63;101497.15;1601168;89;21081;-82
2021/08/24 01:21:20;;;;;;;4.33;1.70;;;;;;;13.56;86.63;101499.73;1592477;87;20978;-82
2021/08/24 01:24:26;;;;;;;3.12;1.90;;;;;;;13.56;86.67;101503.19;1565976;88;20958;-82
2021/08/24 01:27:07;;;;;;;2.83;1.82;;;;;;;13.57;86.68;101505.34;1548161;91;20968;-81
2021/08/24 01:30:20;;;;;;;4.22;1.92;;;;;;;13.59;86.69;101504.87;1582442;89;20954;-81
2021/08/24 01:33:13;;;;;;;4.12;2.20;;;;;;;13.59;86.68;101507.04;1574632;89;20972;-81
2021/08/24 01:36:05;;;;;;;5.92;1.90;;;;;;;13.60;86.64;101505.30;1591396;88;20983;-81
2021/08/24 01:38:39;;;;;;;4.33;1.82;;;;;;;13.60;86.63;101498.80;1571675;89;20951;-81
2021/08/24 01:41:18;;;;;;;3.87;1.72;;;;;;;13.61;86.62;101503.56;1544844;89;20954;-81
2021/08/24 01:44:14;;;;;;;3.40;1.80;;;;;;;13.60;86.61;101506.59;1541167;90;20979;-81
2021/08/24 01:46:48;;;;;;;3.80;1.55;;;;;;;13.61;86.63;101510.06;1551925;90;20954;-81
2021/08/24 01:49:21;;;;;;;4.42;1.90;;;;;;;13.62;86.65;101507.87;1614297;86;20963;-82
2021/08/24 01:52:14;;;;;;;6.58;2.05;;;;;;;13.61;86.62;101509.62;1592996;87;21010;-82
2021/08/24 01:54:53;;;;;;;3.75;1.77;;;;;;;13.61;86.63;101509.62;1601142;89;20978;-81
2021/08/24 01:57:27;;;;;;;3.08;1.90;;;;;;;13.62;86.62;101520.43;1601979;87;20978;-81
2021/08/24 02:00:07;;;;;;;5.37;2.20;;;;;;;13.62;86.64;101515.67;1592730;89;20950;-81
2021/08/24 02:02:42;;;;;;;4.35;1.90;;;;;;;13.61;86.63;101512.22;1592351;87;20946;-81
2021/08/24 02:05:21;;;;;;;5.67;1.90;;;;;;;13.62;86.65;101525.63;1595750;87;21062;-81
2021/08/24 02:07:52;;;;;;;4.35;2.25;;;;;;;13.63;86.64;101527.79;1590654;89;21126;-81
2021/08/24 02:10:25;;;;;;;5.05;1.95;;;;;;;13.63;86.63;101526.05;1577544;89;21129;-81
2021/08/24 02:12:55;;;;;;;6.95;2.10;;;;;;;13.64;86.64;101522.57;1593926;87;21077;-81
2021/08/24 02:15:37;;;;;;;4.15;1.70;;;;;;;13.65;86.63;101524.73;1626182;87;21036;-81
2021/08/24 02:18:10;;;;;;;3.55;2.25;;;;;;;13.65;86.64;101528.63;1575750;89;21158;-81
2021/08/24 02:20:40;;;;;;;5.58;2.20;;;;;;;13.66;86.65;101539.44;1567292;87;21094;-81
2021/08/24 02:23:12;;;;;;;7.50;1.95;;;;;;;13.65;86.60;101536.42;1601036;86;21145;-81
2021/08/24 02:25:44;;;;;;;2.70;1.75;;;;;;;13.65;86.62;101544.22;1581774;87;21100;-81
2021/08/24 02:28:14;;;;;;;7.72;1.92;;;;;;;13.64;86.61;101542.06;1595895;89;21596;-81
2021/08/24 02:30:49;;;;;;;4.37;1.82;;;;;;;13.63;86.59;101537.74;1566197;89;21168;-81
2021/08/24 02:33:17;;;;;;;3.17;1.60;;;;;;;13.63;86.58;101540.78;1598896;87;21033;-81
2021/08/24 02:35:54;;;;;;;3.80;1.70;;;;;;;13.62;86.57;101546.86;1627238;87;21048;-81
2021/08/24 02:38:32;;;;;;;3.40;1.52;;;;;;;13.61;86.58;101537.34;1581052;89;20990;-82
2021/08/24 02:41:12;;;;;;;4.53;1.60;;;;;;;13.59;86.59;101546.46;1584861;88;21109;-82
2021/08/24 02:43:49;;;;;;;3.40;1.65;;;;;;;13.59;86.57;101544.72;1606592;87;21064;-82
2021/08/24 02:46:24;;;;;;;9.35;2.33;;;;;;;13.58;86.58;101548.64;1602241;89;21081;-82
2021/08/24 02:48:59;;;;;;;4.72;1.82;;;;;;;13.58;86.59;101549.94;1602551;87;21047;-82
2021/08/24 02:51:27;;;;;;;2.55;1.50;;;;;;;13.57;86.57;101551.68;1642648;85;21065;-82
2021/08/24 02:54:14;;;;;;;8.40;2.33;;;;;;;13.56;86.58;101549.09;1595967;86;21077;-82
2021/08/24 02:56:40;;;;;;;6.03;1.87;;;;;;;13.57;86.62;101556.02;1587940;89;21060;-82
2021/08/24 02:59:08;;;;;;;5.83;1.70;;;;;;;13.56;86.56;101556.45;1606392;88;21023;-82
2021/08/24 03:01:36;;;;;;;2.95;1.47;;;;;;;13.56;86.59;101553.00;1662659;85;21636;-82
2021/08/24 03:04:04;;;;;;;3.92;1.98;;;;;;;13.56;86.61;101551.26;1623709;85;21120;-82
2021/08/24 03:06:33;;;;;;;2.58;1.85;;;;;;;13.55;86.59;101548.23;1614004;88;21481;-82
2021/08/24 03:09:01;;;;;;;3.47;1.40;;;;;;;13.56;86.58;101547.80;1614070;88;20999;-82
2021/08/24 03:11:33;;;;;;;5.67;1.60;;;;;;;13.54;86.59;101553.02;1639510;85;20890;-82
2021/08/24 03:14:04;;;;;;;3.27;1.82;;;;;;;13.55;86.57;101546.08;1621913;87;20925;-82
2021/08/24 03:16:39;;;;;;;3.37;1.67;;;;;;;13.55;86.58;101548.68;1616035;88;20952;-82
2021/08/24 03:19:22;;;;;;;6.87;2.30;;;;;;;13.55;86.59;101553.44;1613050;85;20992;-82
2021/08/24 03:21:50;;;;;;;3.20;1.65;;;;;;;13.56;86.57;101556.89;1645338;85;20932;-82
2021/08/24 03:24:23;;;;;;;2.05;1.42;;;;;;;13.54;86.54;101559.52;1640249;85;21839;-82
2021/08/24 03:26:50;;;;;;;4.25;2.08;;;;;;;13.55;86.55;101559.94;1629983;87;20961;-82
2021/08/24 03:29:19;;;;;;;;;;;;;;;13.54;86.57;101567.31;1644809;87;20945;-82
2021/08/24 03:31:50;;;;;;;5.12;1.57;;;;;;;13.54;86.55;101564.71;1647757;85;20108;-82
2021/08/24 03:34:17;;;;;;;1.82;1.52;;;;;;;13.54;86.53;101567.75;1637685;86;20924;-82
2021/08/24 03:36:43;;;;;;;4.95;1.92;;;;;;;13.53;86.55;101577.28;1620008;87;22208;-82
2021/08/24 03:39:09;;;;;;;3.72;1.60;;;;;;;13.53;86.55;101573.83;1644471;85;21505;-82
2021/08/24 03:41:36;;;;;;;3.45;1.65;;;;;;;13.52;86.54;101582.50;1611830;87;20961;-82
2021/08/24 03:44:04;;;;;;;3.35;1.75;;;;;;;13.52;86.52;101581.20;1611656;88;20964;-82
2021/08/24 03:46:31;;;;;;;5.15;1.75;;;;;;;13.52;86.50;101587.26;1616241;85;21331;-82
2021/08/24 03:48:57;;;;;;;4.22;1.45;;;;;;;13.53;86.50;101589.42;1649989;85;21448;-82
2021/08/24 03:51:25;;;;;;;5.78;2.00;;;;;;;13.51;86.49;101584.27;1627249;85;20924;-82
2021/08/24 03:53:51;;;;;;;5.72;1.45;;;;;;;13.52;86.46;101591.59;1604029;88;21493;-82
2021/08/24 03:56:17;;;;;;;3.45;1.75;;;;;;;13.51;86.45;101591.20;1604376;86;20966;-82
2021/08/24 03:58:44;;;;;;;5.08;1.80;;;;;;;13.50;86.47;101595.55;1571310;88;20930;-82
2021/08/24 04:01:14;;;;;;;3.98;1.90;;;;;;;13.49;86.41;101601.62;1577673;89;21472;-82
2021/08/24 04:03:41;;;;;;;4.05;2.15;;;;;;;13.49;86.42;101602.06;1554148;89;21073;-82
2021/08/24 04:06:07;;;;;;;;;;;;;;;13.48;86.43;101601.20;1564082;89;22094;-82
2021/08/24 04:08:34;;;;;;;3.27;1.55;;;;;;;13.46;86.38;101599.05;1564683;89;21106;-82
2021/08/24 04:11:03;;;;;;;3.92;1.90;;;;;;;13.46;86.42;101601.66;1545182;90;21597;-82
2021/08/24 04:13:30;;;;;;;3.20;1.70;;;;;;;13.46;86.36;101608.59;1567163;91;21693;-82
2021/08/24 04:15:57;;;;;;;2.40;1.87;;;;;;;13.45;86.40;101610.33;1564251;91;29062;-82
2021/08/24 04:18:24;;;;;;;5.10;2.10;;;;;;;13.45;86.36;101614.23;1560015;89;21572;-82
2021/08/24 04:20:53;;;;;;;2.17;1.45;;;;;;;13.45;86.42;101623.76;1567760;89;21539;-82
2021/08/24 04:23:23;;;;;;;4.42;1.90;;;;;;;13.43;86.38;101618.58;1568694;90;21089;-82
2021/08/24 04:25:49;;;;;;;6.28;1.80;;;;;;;13.45;86.40;101627.66;1575225;90;22157;-82
2021/08/24 04:28:16;;;;;;;3.08;1.52;;;;;;;13.44;86.39;101625.50;1559143;89;21666;-82
2021/08/24 04:30:42;;;;;;;2.45;1.72;;;;;;;13.44;86.37;101623.34;1574943;89;21556;-82
2021/08/24 04:33:09;;;;;;;4.62;2.55;;;;;;;13.45;86.39;101631.55;1557276;90;21109;-82
2021/08/24 04:35:35;;;;;;;3.62;1.62;;;;;;;13.44;86.36;101622.04;1565021;89;22224;-82
2021/08/24 04:38:02;;;;;;;;;;;;;;;13.44;86.32;101629.83;1584426;88;21553;-82
2021/08/24 04:40:30;;;;;;;2.72;1.70;;;;;;;13.42;86.38;101631.15;1540560;91;20222;-82
2021/08/24 04:42:56;;;;;;;2.27;1.52;;;;;;;13.42;86.35;101632.89;1544350;92;21078;-82
2021/08/24 04:45:24;;;;;;;4.08;1.70;;;;;;;13.41;86.35;101633.77;1545441;89;21759;-82
2021/08/24 04:47:51;;;;;;;4.95;1.85;;;;;;;13.39;86.31;101640.27;1577365;88;21505;-82
2021/08/24 04:50:17;;;;;;;3.12;1.52;;;;;;;13.39;86.33;101642.02;1567987;90;21139;-82
2021/08/24 04:52:46;;;;;;;4.80;1.52;;;;;;;13.39;86.36;101643.31;1565195;90;21531;-82
2021/08/24 04:55:13;;;;;;;3.60;1.65;;;;;;;13.40;86.37;101654.13;1580358;88;21141;-82
2021/08/24 04:57:42;;;;;;;2.22;1.30;;;;;;;13.42;86.28;101657.13;1590280;87;21471;-82
2021/08/24 05:00:10;;;;;;;2.08;1.35;;;;;;;13.45;86.36;101654.50;1570819;90;21117;-82
2021/08/24 05:02:37;;;;;;;3.02;1.72;;;;;;;13.47;86.36;101654.48;1569916;90;21586;-82
2021/08/24 05:05:04;;;;;;;3.87;1.32;;;;;;;13.48;86.34;101659.66;1590328;89;21150;-82
2021/08/24 05:07:30;;;;;;;7.33;1.70;;;;;;;13.50;86.36;101667.00;1570031;89;21087;-82
2021/08/24 05:09:58;;;;;;;5.37;1.45;;;;;;;13.52;86.37;101670.41;1575649;88;21703;-82
2021/08/24 05:12:24;;;;;;;2.40;1.40;;;;;;;13.56;86.34;101667.34;1581877;89;21152;-82
2021/08/24 05:14:50;;;;;;;2.42;1.40;;;;;;;13.59;86.32;101665.56;1565469;90;21745;-82
2021/08/24 05:17:17;;;;;;;;;;;;;;;13.56;86.33;101651.31;1573303;88;22108;-82
2021/08/24 05:19:43;;;;;;;3.67;1.70;;;;;;;13.72;86.29;101670.19;1589493;89;20586;-82
2021/08/24 05:22:10;;;;;;;3.70;1.70;;;;;;;13.84;86.37;101672.64;1576296;89;21142;-82
2021/08/24 05:24:38;;;;;;;4.22;1.60;;;;;;;14.04;86.43;101670.19;1565246;90;21574;-82
2021/08/24 05:27:05;;;;;;;5.92;1.80;;;;;;;14.12;86.29;101671.80;1584703;88;21139;-82
2021/08/24 05:29:32;;;;;;;2.40;1.62;;;;;;;14.18;86.22;101679.52;1585932;88;21584;-82
2021/08/24 05:31:59;;;;;;;1.72;1.12;;;;;;;14.33;86.28;101684.09;1582853;89;21400;-82
2021/08/24 05:34:25;;;;;;;3.72;1.52;;;;;;;14.37;86.09;101687.94;1590481;88;21002;-82
2021/08/24 05:36:52;;;;;;;4.05;1.40;;;;;;;14.39;86.02;101686.61;1584980;88;21353;-82
2021/08/24 05:39:18;;;;;;;3.30;1.40;;;;;;;14.40;86.03;101690.94;1586468;88;21824;-82
2021/08/24 05:41:45;;;;;;;4.90;1.55;;;;;;;14.42;86.01;101691.37;1568717;90;21359;-82
2021/08/24 05:44:11;;;;;;;8.08;1.55;;;;;;;14.46;86.07;101688.28;1583057;88;21315;-82
2021/08/24 05:46:38;;;;;;;4.53;1.62;;;;;;;14.65;86.34;101690.98;1591347;89;29023;-82
2021/08/24 05:49:05;;;;;;;3.87;1.55;;;;;;;14.99;86.58;101695.66;1552394;89;21010;-83
2021/08/24 05:51:32;;;;;;;3.35;1.30;;;;;;;15.36;86.62;101691.94;1596706;88;21044;-82
2021/08/24 05:54:06;;;;;;;4.08;1.47;;;;;;;15.76;86.70;101694.19;1628991;86;21113;-82
2021/08/24 05:56:32;;;;;;;2.37;1.37;;;;;;;16.08;86.40;101705.27;1600378;87;21582;-82
2021/08/24 05:58:59;;;;;;;2.12;1.27;;;;;;;16.24;86.03;101709.69;1618203;86;21096;-82
2021/08/24 06:01:29;;;;;;;2.35;1.40;;;;;;;16.39;85.81;101708.04;1629067;86;21751;-82
2021/08/24 06:03:58;;;;;;;1.87;1.17;;;;;;;16.56;85.86;101718.10;1625682;86;21764;-82
2021/08/24 06:06:29;;;;;;;4.53;1.32;;;;;;;16.75;85.78;101720.70;1603380;86;21644;-82
2021/08/24 06:09:07;;;;;;;1.55;1.42;;;;;;;16.99;85.79;101719.70;1617921;86;21029;-83
2021/08/24 06:11:42;;;;;;;2.20;1.30;;;;;;;17.24;85.62;101719.91;1623338;86;21112;-81
2021/08/24 06:14:14;;;;;;;1.95;1.35;;;;;;;17.48;85.66;101721.43;1610874;88;21108;-82
2021/08/24 06:16:41;;;;;;;;;;;;;;;17.76;85.57;101717.61;1616892;87;21530;-82
2021/08/24 06:19:09;;;;;;;3.80;1.55;;;;;;;17.97;85.07;101720.52;1626477;86;20466;-82
2021/08/24 06:21:37;;;;;;;4.08;1.42;;;;;;;18.08;85.15;101725.84;1627434;85;21018;-82
2021/08/24 06:24:05;;;;;;;5.00;1.60;;;;;;;18.23;85.14;101730.20;1626847;86;20933;-82
2021/08/24 06:26:32;;;;;;;1.92;1.30;;;;;;;18.38;85.08;101724.05;1619420;86;20957;-81
2021/08/24 06:29:05;;;;;;;2.65;1.37;;;;;;;18.49;84.95;101727.19;1624073;86;20910;-82
2021/08/24 06:31:32;;;;;;;3.00;1.20;;;;;;;18.65;84.92;101735.92;1618788;86;20886;-82
2021/08/24 06:33:59;;;;;;;3.67;1.05;;;;;;;18.82;84.96;101730.52;1628268;86;20914;-82
2021/08/24 06:36:26;;;;;;;2.80;1.30;;;;;;;19.00;84.82;101735.61;1624523;86;20894;-81
2021/08/24 06:38:52;;;;;;;2.52;1.10;;;;;;;19.16;84.77;101739.89;1619067;86;20882;-81
2021/08/24 06:41:21;;;;;;;3.33;1.00;;;;;;;19.27;84.50;101737.73;1632507;86;20906;-81
2021/08/24 06:43:49;;;;;;;4.40;1.90;;;;;;;19.34;84.44;101742.31;1628852;86;38288;-81
2021/08/24 06:46:15;;;;;;;3.02;1.17;;;;;;;19.49;84.50;101736.54;1625328;86;28331;-81
2021/08/24 06:48:41;;;;;;;2.37;1.50;;;;;;;19.65;84.44;101748.70;1609143;86;21088;-81
2021/08/24 06:51:09;;;;;;;6.37;1.12;;;;;;;19.64;84.13;101744.36;1614215;88;21120;-81
2021/08/24 06:53:37;;;;;;;2.02;1.02;;;;;;;19.74;84.55;101749.69;1615219;87;20981;-82
2021/08/24 06:56:04;;;;;;;5.00;1.12;;;;;;;19.73;84.32;101747.52;1616971;85;21022;-82
2021/08/24 06:58:34;;;;;;;2.87;1.00;;;;;;;19.91;84.70;101754.30;1637640;84;178105;-82
2021/08/24 07:01:00;;;;;;;1.85;1.20;;;;;;;20.11;84.53;101751.33;1663177;84;21069;-82
2021/08/24 07:03:27;;;;;;;3.50;1.72;;;;;;;20.27;84.27;101755.55;1670759;84;21061;-83
2021/08/24 07:05:53;;;;;;;1.82;1.00;;;;;;;20.36;83.99;101758.25;1664369;84;21074;-83
2021/08/24 07:08:19;;;;;;;3.67;1.20;;;;;;;20.49;84.10;101760.38;1667585;85;21077;-83
2021/08/24 07:10:48;;;;;;;3.67;1.00;;;;;;;20.65;83.92;101751.44;1655675;84;21053;-83
2021/08/24 07:13:16;;;;;;;;;;;;;;;20.81;84.10;101759.08;1670374;84;21081;-83
2021/08/24 07:15:43;;;;;;;2.00;1.00;;;;;;;20.98;83.46;101757.55;1667372;85;20224;-83
2021/08/24 07:18:10;;;;;;;4.80;0.75;;;;;;;20.97;83.72;101761.09;1667335;85;21073;-83
2021/08/24 07:20:36;;;;;;;1.47;1.02;;;;;;;20.93;83.54;101764.30;1628071;86;21045;-83
2021/08/24 07:23:03;;;;;;;2.90;0.90;;;;;;;20.85;83.49;101762.44;1666584;83;21121;-83
2021/08/24 07:25:37;;;;;;;2.83;1.20;;;;;;;20.91;83.68;101762.20;1654616;84;20935;-83
2021/08/24 07:28:00;;;;;;;2.58;0.80;;;;;;;20.99;83.58;101757.48;1666491;84;20934;-83
2021/08/24 07:30:26;;;;;;;2.67;0.85;;;;;;;21.07;83.54;101755.39;1656204;85;20895;-83
2021/08/24 07:33:02;;;;;;;4.25;0.90;;;;;;;21.13;83.52;101766.97;1650527;85;20947;-83
2021/08/24 07:35:29;;;;;;;5.92;1.20;;;;;;;21.05;83.12;101765.12;1670043;84;20943;-83
2021/08/24 07:37:55;;;;;;;4.58;0.95;;;;;;;21.01;82.97;101767.94;1660402;84;20922;-83
2021/08/24 07:40:22;;;;;;;;;;;;;;;20.94;82.95;101763.84;1672687;85;20887;-83
2021/08/24 07:42:49;;;;;;;1.60;1.02;;;;;;;20.88;82.35;101756.20;1649677;85;20092;-83
2021/08/24 07:45:15;;;;;;;1.50;1.07;;;;;;;20.95;83.05;101765.56;1667907;84;20988;-83
2021/08/24 07:47:42;;;;;;;1.15;0.78;;;;;;;20.73;82.68;101761.19;1669423;85;28045;-83
2021/08/24 07:50:08;;;;;;;1.35;0.90;;;;;;;20.71;82.78;101764.34;1655257;84;20935;-83
2021/08/24 07:52:35;;;;;;;1.12;0.80;;;;;;;20.80;83.01;101765.72;1652882;84;20911;-83
2021/08/24 07:55:20;;;;;;;1.45;0.90;;;;;;;20.89;82.92;101764.48;1666536;84;20892;-83
2021/08/24 07:57:46;;;;;;;;;;;;;;;20.85;82.54;101772.11;1661517;85;20903;-83
2021/08/24 08:00:14;;;;;;;1.02;0.90;;;;;;;20.77;81.60;101771.12;1657864;85;20234;-83
2021/08/24 08:02:49;;;;;;;2.33;0.93;;;;;;;20.77;82.29;101779.02;1667890;84;21109;-83
2021/08/24 08:05:17;;;;;;;1.30;1.00;;;;;;;20.69;82.14;101776.69;1656933;85;21089;-83
2021/08/24 08:07:44;;;;;;;2.70;0.93;;;;;;;20.68;82.02;101774.12;1666895;85;21117;-83
2021/08/24 08:10:12;;;;;;;4.40;0.98;;;;;;;20.78;82.17;101775.47;1654617;84;20981;-83
2021/08/24 08:12:40;;;;;;;2.05;0.88;;;;;;;20.82;81.98;101776.56;1669759;84;21097;-86
2021/08/24 08:15:10;;;;;;;4.83;0.80;;;;;;;20.78;81.96;101776.78;1652817;84;20918;-79
2021/08/24 08:17:39;;;;;;;1.70;0.95;;;;;;;20.67;81.71;101780.30;1660675;84;20938;-85
2021/08/24 08:20:07;;;;;;;2.15;0.90;;;;;;;20.56;81.72;101777.23;1634628;85;20979;-85
2021/08/24 08:22:35;;;;;;;0.72;0.72;;;;;;;20.54;81.78;101784.31;1649137;85;20934;-86
2021/08/24 08:25:01;;;;;;;4.92;0.90;;;;;;;20.51;81.70;101789.69;1654600;84;21396;-84
2021/08/24 08:27:27;;;;;;;2.52;1.10;;;;;;;20.36;81.32;101789.33;1654046;84;20919;-85
2021/08/24 08:29:55;;;;;;;2.27;0.80;;;;;;;20.29;81.33;101790.47;1658308;85;20886;-85
2021/08/24 08:32:27;;;;;;;1.92;0.80;;;;;;;20.21;81.21;101787.30;1624287;86;20970;-87
2021/08/24 08:34:55;;;;;;;2.87;0.80;;;;;;;20.14;81.25;101799.80;1621369;86;20962;-82
2021/08/24 08:37:21;;;;;;;3.15;0.90;;;;;;;19.97;81.00;101791.68;1636764;86;20965;-82
2021/08/24 08:39:48;;;;;;;5.92;1.00;;;;;;;19.88;80.99;101791.16;1591916;88;26438;-82
2021/08/24 08:42:32;;;;;;;4.47;0.78;;;;;;;19.82;80.99;101786.98;1622852;86;24742;-83
2021/08/24 08:45:09;;;;;;;6.50;0.85;;;;;;;19.72;80.76;101795.66;1625993;86;20934;-85
2021/08/24 08:48:02;;;;;;;2.52;0.78;;;;;;;19.90;80.77;101792.81;1609562;86;20986;-84
2021/08/24 08:50:57;;;;;;;1.82;0.98;;;;;;;20.34;80.20;101798.17;1666110;83;20979;-84
2021/08/24 08:53:52;;;;;;;1.22;0.90;;;;;;;20.74;79.92;101795.77;1678348;84;20894;-84
2021/08/24 08:56:34;;;;;;;4.33;0.90;;;;;;;21.22;79.96;101791.22;1671139;83;20953;-83
2021/08/24 08:59:36;;;;;;;1.22;0.82;;;;;;;21.46;79.75;101797.59;1636100;85;20929;-84
2021/08/24 09:02:25;;;;;;;3.72;0.98;;;;;;;21.67;80.08;101787.07;1634803;86;20981;-84
2021/08/24 09:04:53;;;;;;;3.25;1.67;;;;;;;21.65;79.81;101802.94;1629486;87;20940;-83
2021/08/24 09:07:43;;;;;;;5.75;1.60;;;;;;;21.13;79.87;101802.48;1601224;87;21009;-83
2021/08/24 09:10:38;;;;;;;2.43;2.07;;;;;;;20.87;79.85;101805.30;1577670;88;21006;-83
2021/08/24 09:13:31;;;;;;;5.83;1.82;;;;;;;20.41;79.49;101803.63;1677503;84;21601;-83
2021/08/24 09:16:16;;;;;;;3.60;1.80;;;;;;;19.99;79.70;101806.06;1665891;84;20887;-82
2021/08/24 09:19:03;;;;;;;3.55;1.77;;;;;;;19.71;79.50;101800.97;1671719;83;20875;-82
2021/08/24 09:21:35;;;;;;;1.67;1.57;;;;;;;19.49;79.44;101804.75;1652888;84;20969;-85
2021/08/24 09:24:20;;;;;;;3.75;2.10;;;;;;;19.33;79.28;101804.86;1670895;85;20946;-83
2021/08/24 09:26:57;;;;;;;3.05;2.05;;;;;;;19.18;79.00;101808.88;1678606;84;20870;-82
2021/08/24 09:29:34;;;;;;;2.77;2.15;;;;;;;18.94;78.65;101807.89;1679628;83;21452;-82
2021/08/24 09:32:07;;;;;;;3.33;1.90;;;;;;;18.79;78.43;101817.09;1669483;84;20882;-83
2021/08/24 09:34:38;;;;;;;2.12;1.80;;;;;;;18.64;78.38;101811.04;1678409;83;20888;-82
2021/08/24 09:37:06;;;;;;;3.20;1.98;;;;;;;18.51;78.18;101813.59;1675228;85;20961;-82
2021/08/24 09:39:53;;;;;;;3.17;2.12;;;;;;;18.44;78.19;101810.29;1693909;83;21415;-82
2021/08/24 09:42:42;;;;;;;4.10;2.30;;;;;;;18.42;78.17;101817.33;1681007;83;20910;-82
2021/08/24 09:45:28;;;;;;;4.12;2.15;;;;;;;18.41;77.97;101817.38;1630949;87;20937;-82
2021/08/24 09:48:15;;;;;;;2.37;2.00;;;;;;;18.44;77.81;101814.22;1633292;87;20941;-82
2021/08/24 09:50:45;;;;;;;3.00;2.27;;;;;;;18.47;77.45;101808.89;1656241;86;20988;-82
2021/08/24 09:53:32;;;;;;;3.60;2.15;;;;;;;18.47;77.43;101808.89;1599762;87;20945;-82
2021/08/24 09:56:09;;;;;;;2.77;2.20;;;;;;;18.52;77.27;101806.99;1650788;85;20965;-82
2021/08/24 09:58:46;;;;;;;3.30;2.40;;;;;;;18.48;76.88;101814.53;1669728;84;20875;-82
2021/08/24 10:01:17;;;;;;;2.50;2.15;;;;;;;18.46;76.80;101809.80;1670371;84;20949;-81
2021/08/24 10:04:06;;;;;;;3.95;2.37;;;;;;;18.48;76.74;101808.44;1661382;84;20895;-81
2021/08/24 10:07:00;;;;;;;4.17;2.37;;;;;;;18.59;76.74;101812.91;1657979;84;25069;-81
2021/08/24 10:09:39;;;;;;;3.05;2.30;;;;;;;18.67;76.37;101816.64;1667167;84;20910;-81
2021/08/24 10:12:30;;;;;;;3.62;2.37;;;;;;;18.67;76.21;101809.64;1668763;84;20914;-81
2021/08/24 10:15:24;;;;;;;2.42;1.92;;;;;;;18.62;76.03;101807.61;1652597;85;20950;-80
2021/08/24 10:18:08;;;;;;;4.30;2.02;;;;;;;18.58;76.06;101812.50;1643055;85;20930;-80
2021/08/24 10:20:51;;;;;;;4.75;2.65;;;;;;;18.66;76.06;101810.99;1652709;86;21031;-80
2021/08/24 10:23:42;;;;;;;7.58;2.17;;;;;;;18.78;75.97;101811.45;1636119;86;20918;-80
2021/08/24 10:26:13;;;;;;;3.15;2.22;;;;;;;18.83;75.63;101821.33;1633629;87;20941;-80
2021/08/24 10:28:50;;;;;;;2.30;2.10;;;;;;;18.81;75.59;101818.36;1628823;86;20997;-80
2021/08/24 10:31:38;;;;;;;3.00;2.15;;;;;;;18.75;75.33;101822.02;1623235;87;20909;-80
2021/08/24 10:34:33;;;;;;;2.47;1.98;;;;;;;18.68;75.17;101825.77;1626083;87;20882;-79
2021/08/24 10:37:27;;;;;;;4.80;2.22;;;;;;;18.64;75.12;101825.45;1600774;88;20955;-79
2021/08/24 10:40:13;;;;;;;5.47;2.17;;;;;;;18.67;75.21;101829.28;1673864;84;20914;-79
2021/08/24 10:42:44;;;;;;;3.08;2.72;;;;;;;18.71;75.07;101830.91;1632529;86;20957;-79
2021/08/24 10:45:26;;;;;;;2.83;2.37;;;;;;;18.70;74.91;101828.34;1620046;87;20993;-79
2021/08/24 10:47:59;;;;;;;2.77;2.40;;;;;;;18.73;74.98;101833.45;1610975;87;20954;-79
2021/08/24 10:50:36;;;;;;;4.03;2.20;;;;;;;18.83;74.59;101827.03;1624200;85;20929;-79
2021/08/24 10:53:23;;;;;;;4.03;2.72;;;;;;;18.87;74.65;101828.65;1633946;87;21080;-79
2021/08/24 10:56:30;;;;;;;3.55;2.65;;;;;;;18.89;74.53;101831.22;1666043;86;21542;-79
2021/08/24 10:59:26;;;;;;;3.58;2.50;;;;;;;18.79;74.34;101831.95;1629270;87;21614;-79
2021/08/24 11:02:01;;;;;;;;;;;;;;;18.65;74.33;101832.86;1610891;88;21092;-79
2021/08/24 11:04:49;;;;;;;4.08;2.50;;;;;;;18.61;74.22;101833.85;1632514;86;20162;-79
2021/08/24 11:08:09;;;;;;;4.20;2.42;;;;;;;18.64;74.49;101835.93;1660390;85;21088;-79
2021/08/24 11:11:09;;;;;;;4.35;2.20;;;;;;;18.73;74.54;101842.17;1668362;84;20974;-79
2021/08/24 11:13:41;;;;;;;4.78;2.83;;;;;;;18.77;74.33;101837.70;1636039;87;20981;-78
2021/08/24 11:16:35;;;;;;;2.77;2.42;;;;;;;18.78;74.21;101838.11;1618452;87;20954;-78
2021/08/24 11:19:08;;;;;;;4.22;2.80;;;;;;;18.72;74.05;101839.59;1612478;87;20937;-78
2021/08/24 11:21:53;;;;;;;6.20;3.65;;;;;;;18.65;74.05;101836.34;1566261;90;20955;-78
2021/08/24 11:24:57;;;;;;;3.58;2.83;;;;;;;18.56;73.95;101842.27;1669170;84;20981;-78
2021/08/24 11:28:13;;;;;;;3.10;2.80;;;;;;;18.51;74.00;101847.64;1637402;85;20963;-78
2021/08/24 11:30:56;;;;;;;4.20;2.77;;;;;;;18.47;73.95;101844.25;1629631;86;20969;-78
2021/08/24 11:33:33;;;;;;;2.75;2.50;;;;;;;18.48;73.97;101848.59;1679468;84;20925;-78
2021/08/24 11:36:23;;;;;;;3.62;3.25;;;;;;;18.53;73.92;101850.63;1660563;84;20966;-78
2021/08/24 11:39:15;;;;;;;4.83;3.17;;;;;;;18.58;73.78;101847.87;1667253;84;20944;-78
2021/08/24 11:41:48;;;;;;;3.62;3.10;;;;;;;18.67;73.74;101848.94;1666702;85;20937;-78
2021/08/24 11:44:20;;;;;;;4.40;2.65;;;;;;;18.78;73.68;101842.89;1663970;85;20950;-78
2021/08/24 11:46:57;;;;;;;8.58;3.52;;;;;;;18.88;73.61;101838.68;1673609;84;20958;-77
2021/08/24 11:49:52;;;;;;;6.28;5.20;;;;;;;18.94;73.52;101847.21;1632673;87;20976;-77
2021/08/24 11:52:35;;;;;;;7.60;5.65;;;;;;;19.03;73.46;101847.37;1655505;83;20953;-77
2021/08/24 11:55:27;;;;;;;4.65;2.98;;;;;;;19.06;73.26;101845.52;1638743;85;20961;-77
2021/08/24 11:58:20;;;;;;;4.87;2.92;;;;;;;19.04;73.20;101847.33;1638123;86;20921;-77
2021/08/24 12:00:53;;;;;;;4.47;2.70;;;;;;;19.01;73.15;101850.05;1655030;84;21417;-77